KDEC/DEC METAR and TAF weather

Enter ICAO airport designator
Station Type Date Time Source
KDEC METAR 2018/12/12 22:54 UTC NOAA

KDEC 122254Z 24005KT 10SM CLR 04/00 A2990 RMK AO2 SLP131 T00440000


Station Type Date Time Source
KDEC Decoded METAR 2018/12/12 22:54 UTC NOAA

DECATUR AIRPORT, IL, United States (KDEC) 39-50N 88-52W 207M
Dec 12, 2018 - 05:54 PM EST / 2018.12.12 2254 UTC
Wind: from the WSW (240 degrees) at 6 MPH (5 KT):0
Visibility: 10 mile(s):0
Sky conditions: clear
Temperature: 39.9 F (4.4 C)
Dew Point: 32.0 F (0.0 C)
Relative Humidity: 73%
Pressure (altimeter): 29.9 in. Hg (1012 hPa)
ob: KDEC 122254Z 24005KT 10SM CLR 04/00 A2990 RMK AO2 SLP131 T00440000
cycle: 23

Station Type Date Time Source
KDEC TAF 2018/12/12 18:24 UTC NOAA

TAF KDEC 121721Z 1218/1318 25012G21KT P6SM SCT200
FM130000 20004KT P6SM BKN200
FM131100 12005KT P6SM BKN015
FM131300 12006KT 5SM BR VCSH BKN007


Example: see airport list